createdAt,value
2022-11-07T00:00:25.797Z,0.63
2022-11-07T00:03:28.586Z,0.80
2022-11-07T00:06:32.626Z,0.73
2022-11-07T00:09:35.530Z,0.63
2022-11-07T00:12:38.180Z,0.80
2022-11-07T00:15:40.805Z,0.60
2022-11-07T00:18:43.439Z,0.60
2022-11-07T00:21:47.653Z,0.70
2022-11-07T00:24:50.283Z,0.43
2022-11-07T00:27:52.888Z,0.80
2022-11-07T00:30:55.525Z,0.50
2022-11-07T00:33:59.824Z,0.70
2022-11-07T00:37:03.921Z,0.73
2022-11-07T00:40:08.092Z,0.60
2022-11-07T00:43:10.794Z,0.87
2022-11-07T00:46:15.636Z,0.50
2022-11-07T00:49:18.312Z,0.67
2022-11-07T00:52:22.294Z,0.50
2022-11-07T00:55:25.004Z,0.57
2022-11-07T00:58:27.717Z,0.70
2022-11-07T01:01:32.510Z,0.60
2022-11-07T01:04:52.998Z,0.60
2022-11-07T01:07:56.992Z,0.57
2022-11-07T01:11:00.513Z,0.80
2022-11-07T01:14:04.169Z,0.53
2022-11-07T01:17:06.776Z,0.50
2022-11-07T01:20:10.710Z,0.40
2022-11-07T01:23:15.202Z,0.50
2022-11-07T01:26:18.482Z,0.90
2022-11-07T01:29:21.241Z,0.60
2022-11-07T01:32:24.036Z,0.40
2022-11-07T01:35:26.683Z,0.60
2022-11-07T01:38:30.787Z,0.60
2022-11-07T01:41:36.238Z,0.40
2022-11-07T01:44:54.805Z,0.50
2022-11-07T01:48:03.538Z,0.60
2022-11-07T01:51:07.490Z,0.80
2022-11-07T01:54:13.325Z,0.57
2022-11-07T01:57:21.322Z,0.40
2022-11-07T02:00:25.168Z,0.50
2022-11-07T02:03:27.825Z,0.60
2022-11-07T02:06:39.773Z,0.80
2022-11-07T02:09:44.379Z,0.60
2022-11-07T02:12:47.116Z,0.73
2022-11-07T02:15:49.847Z,0.70
2022-11-07T02:18:52.758Z,0.63
2022-11-07T02:22:02.715Z,0.60
2022-11-07T02:25:12.438Z,0.57
2022-11-07T02:28:16.882Z,0.77
2022-11-07T02:31:19.572Z,0.47
2022-11-07T02:34:22.346Z,0.67
2022-11-07T02:37:29.160Z,0.60
2022-11-07T02:40:36.093Z,0.73
2022-11-07T02:43:44.737Z,0.67
2022-11-07T02:46:49.812Z,0.70
2022-11-07T02:49:54.679Z,0.67
2022-11-07T02:52:59.413Z,0.60
2022-11-07T02:56:06.050Z,0.70
2022-11-07T02:59:11.050Z,0.67
2022-11-07T03:02:16.975Z,0.77
2022-11-07T03:05:22.854Z,1.00
2022-11-07T03:08:27.865Z,0.73
2022-11-07T03:11:34.060Z,0.80
2022-11-07T03:14:39.291Z,0.80
2022-11-07T03:17:43.946Z,0.77
2022-11-07T03:20:49.338Z,0.90
2022-11-07T03:23:54.498Z,0.87
2022-11-07T03:27:01.790Z,0.90
2022-11-07T03:30:07.140Z,0.70
2022-11-07T03:33:12.214Z,0.50
2022-11-07T03:36:17.181Z,0.60
2022-11-07T03:39:25.596Z,0.90
2022-11-07T03:42:32.533Z,0.57
2022-11-07T03:45:37.193Z,0.80
2022-11-07T03:48:42.249Z,0.60
2022-11-07T03:51:47.623Z,0.60
2022-11-07T03:54:52.536Z,0.80
2022-11-07T03:57:59.303Z,0.70
2022-11-07T04:01:04.533Z,0.60
2022-11-07T04:04:09.594Z,0.60
2022-11-07T04:07:14.113Z,0.60
2022-11-07T04:10:19.781Z,0.93
2022-11-07T04:13:42.885Z,0.83
2022-11-07T04:17:09.944Z,0.70
2022-11-07T04:20:14.815Z,0.70
2022-11-07T04:23:19.768Z,1.00
2022-11-07T04:26:40.933Z,0.80
2022-11-07T04:29:47.554Z,0.70
2022-11-07T04:32:54.320Z,0.70
2022-11-07T04:35:59.137Z,1.10
2022-11-07T04:39:06.051Z,0.60
2022-11-07T04:42:11.086Z,0.53
2022-11-07T04:45:18.046Z,0.43
2022-11-07T04:48:23.032Z,0.77
2022-11-07T04:51:28.178Z,0.70
2022-11-07T04:54:32.886Z,0.50
2022-11-07T04:57:37.528Z,0.90
2022-11-07T05:00:43.584Z,0.60
2022-11-07T05:03:48.188Z,0.70
2022-11-07T05:06:52.879Z,0.73
2022-11-07T05:09:57.633Z,0.70
2022-11-07T05:13:02.353Z,0.50
2022-11-07T05:16:13.567Z,0.60
2022-11-07T05:19:19.605Z,0.50
2022-11-07T05:22:37.901Z,0.67
2022-11-07T05:25:43.494Z,0.80
2022-11-07T05:28:50.930Z,0.50
2022-11-07T05:31:57.083Z,0.50
2022-11-07T05:35:02.434Z,0.60
2022-11-07T05:38:08.154Z,0.60
2022-11-07T05:41:13.415Z,0.53
2022-11-07T05:44:18.281Z,0.60
2022-11-07T05:47:25.066Z,0.67
2022-11-07T05:50:32.778Z,0.70
2022-11-07T05:53:37.575Z,0.67
2022-11-07T05:56:44.686Z,0.70
2022-11-07T05:59:49.207Z,0.77
2022-11-07T06:03:00.874Z,0.60
2022-11-07T06:06:05.569Z,0.60
2022-11-07T06:09:10.315Z,0.57
2022-11-07T06:12:18.249Z,0.30
2022-11-07T06:15:23.399Z,0.40
2022-11-07T06:18:29.981Z,0.67
2022-11-07T06:21:36.184Z,0.70
2022-11-07T06:24:40.756Z,0.70
2022-11-07T06:27:45.442Z,0.70
2022-11-07T06:30:49.943Z,0.60
2022-11-07T06:33:56.362Z,0.80
2022-11-07T06:37:03.346Z,0.50
2022-11-07T06:40:09.154Z,0.60
2022-11-07T06:43:16.325Z,0.70
2022-11-07T06:46:23.543Z,0.60
2022-11-07T06:49:29.971Z,0.47
2022-11-07T06:52:35.024Z,0.80
2022-11-07T06:55:40.430Z,1.00
2022-11-07T06:58:44.997Z,1.40
2022-11-07T07:01:51.543Z,1.50
2022-11-07T07:04:58.014Z,1.20
2022-11-07T07:08:03.590Z,0.97
2022-11-07T07:11:11.090Z,0.97
2022-11-07T07:14:15.969Z,1.00
2022-11-07T07:17:22.624Z,0.60
2022-11-07T07:20:29.306Z,1.17
2022-11-07T07:23:34.969Z,0.60
2022-11-07T07:26:40.085Z,1.20
2022-11-07T07:29:45.519Z,0.70
2022-11-07T07:32:50.765Z,0.80
2022-11-07T07:35:57.035Z,0.73
2022-11-07T07:39:01.999Z,1.03
2022-11-07T07:42:06.924Z,1.20
2022-11-07T07:45:12.980Z,0.90
2022-11-07T07:48:17.530Z,0.60
2022-11-07T07:51:23.817Z,1.00
2022-11-07T07:54:31.570Z,1.00
2022-11-07T07:57:41.543Z,0.97
2022-11-07T08:00:46.266Z,0.87
2022-11-07T08:04:01.311Z,0.98
2022-11-07T08:07:08.949Z,0.68
2022-11-07T08:10:39.740Z,0.82
2022-11-07T08:13:39.366Z,0.88
2022-11-07T08:16:46.823Z,0.80
2022-11-07T08:19:51.801Z,0.67
2022-11-07T08:23:04.165Z,0.95
2022-11-07T08:26:09.346Z,0.77
2022-11-07T08:29:14.136Z,0.85
2022-11-07T08:32:18.786Z,0.50
2022-11-07T08:35:23.941Z,0.85
2022-11-07T08:38:32.204Z,1.50
2022-11-07T08:41:37.561Z,1.13
2022-11-07T08:44:45.788Z,0.77
2022-11-07T08:47:50.653Z,0.70
2022-11-07T08:50:56.562Z,0.65
2022-11-07T08:54:03.558Z,0.80
2022-11-07T08:57:08.322Z,0.77
2022-11-07T09:00:14.518Z,0.70
2022-11-07T09:06:45.474Z,1.10
2022-11-07T09:09:53.141Z,0.88
2022-11-07T09:12:58.506Z,0.90
2022-11-07T09:16:06.574Z,1.08
2022-11-07T09:19:13.819Z,1.10
2022-11-07T09:22:25.013Z,1.00
2022-11-07T09:25:34.346Z,0.88
2022-11-07T09:28:43.672Z,0.77
2022-11-07T09:31:52.752Z,1.20
2022-11-07T09:35:05.054Z,0.95
2022-11-07T09:38:10.864Z,1.60
2022-11-07T09:41:28.014Z,0.68
2022-11-07T09:44:52.892Z,0.70
2022-11-07T09:48:02.446Z,0.90
2022-11-07T09:51:08.462Z,0.63
2022-11-07T09:54:18.105Z,1.00
2022-11-07T09:57:27.903Z,0.43
2022-11-07T10:00:37.589Z,0.70
2022-11-07T10:04:10.160Z,0.80
2022-11-07T10:07:19.825Z,0.68
2022-11-07T10:10:41.046Z,0.60
2022-11-07T10:14:06.635Z,1.35
2022-11-07T10:17:21.000Z,0.90
2022-11-07T10:20:36.867Z,0.52
2022-11-07T10:23:56.385Z,0.80
2022-11-07T10:27:01.518Z,0.80
2022-11-07T10:30:21.133Z,0.80
2022-11-07T10:33:37.010Z,0.73
2022-11-07T10:36:42.981Z,0.70
2022-11-07T10:39:48.372Z,1.05
2022-11-07T10:42:57.303Z,1.00
2022-11-07T10:46:05.644Z,0.70
2022-11-07T10:49:23.048Z,0.75
2022-11-07T10:52:28.683Z,0.77
2022-11-07T10:55:51.765Z,0.60
2022-11-07T10:58:56.516Z,0.60
2022-11-07T11:02:03.940Z,0.93
2022-11-07T11:05:24.604Z,0.50
2022-11-07T11:08:32.787Z,0.70
2022-11-07T11:11:37.887Z,0.80
2022-11-07T11:14:44.171Z,0.93
2022-11-07T11:18:01.006Z,0.80
2022-11-07T11:21:07.368Z,0.90
2022-11-07T11:24:34.102Z,0.40
2022-11-07T11:27:41.617Z,0.50
2022-11-07T11:30:50.019Z,0.63
2022-11-07T11:34:01.165Z,0.50
2022-11-07T11:37:11.084Z,0.50
2022-11-07T11:40:21.026Z,0.47
2022-11-07T11:43:29.356Z,0.55
2022-11-07T11:46:41.264Z,0.60
2022-11-07T11:49:53.379Z,0.90
2022-11-07T11:52:59.845Z,0.90
2022-11-07T11:56:21.298Z,0.52
2022-11-07T11:59:49.130Z,1.15
2022-11-07T12:03:38.257Z,0.90
2022-11-07T12:06:49.126Z,1.65
2022-11-07T12:09:59.212Z,0.70
2022-11-07T12:13:13.765Z,1.02
2022-11-07T12:16:28.928Z,0.73
2022-11-07T12:19:43.681Z,0.70
2022-11-07T12:23:03.060Z,0.80
2022-11-07T12:26:16.420Z,0.70
2022-11-07T12:29:30.429Z,0.65
2022-11-07T12:32:45.561Z,0.70
2022-11-07T12:35:55.652Z,0.70
2022-11-07T12:39:28.082Z,0.68
2022-11-07T12:42:53.748Z,0.63
2022-11-07T12:46:12.509Z,0.50
2022-11-07T12:49:51.656Z,0.90
2022-11-07T12:53:19.104Z,0.70
2022-11-07T12:56:33.541Z,0.50
2022-11-07T12:59:42.612Z,0.75
2022-11-07T13:03:01.014Z,0.75
2022-11-07T13:06:26.533Z,0.57
2022-11-07T13:09:36.166Z,0.68
2022-11-07T13:12:50.000Z,0.65
2022-11-07T13:16:15.110Z,0.65
2022-11-07T13:19:32.884Z,0.50
2022-11-07T13:22:41.522Z,0.50
2022-11-07T13:25:48.351Z,0.40
2022-11-07T13:29:02.363Z,1.00
2022-11-07T13:32:10.049Z,0.50
2022-11-07T13:35:46.904Z,0.45
2022-11-07T13:39:11.205Z,0.60
2022-11-07T13:45:54.010Z,0.60
2022-11-07T13:49:15.502Z,0.55
2022-11-07T13:52:26.518Z,0.60
2022-11-07T13:55:51.319Z,0.70
2022-11-07T13:59:09.175Z,0.40
2022-11-07T14:02:28.585Z,0.80
2022-11-07T14:05:36.268Z,0.45
2022-11-07T14:08:46.434Z,0.55
2022-11-07T14:12:08.661Z,0.80
2022-11-07T14:15:20.243Z,0.57
2022-11-07T14:18:39.530Z,0.70
2022-11-07T14:21:48.460Z,0.30
2022-11-07T14:25:00.919Z,0.40
2022-11-07T14:28:09.562Z,0.50
2022-11-07T14:31:20.324Z,0.60
2022-11-07T14:34:28.868Z,0.52
2022-11-07T14:37:37.025Z,0.60
2022-11-07T14:40:43.930Z,0.60
2022-11-07T14:43:50.382Z,0.80
2022-11-07T14:46:56.526Z,0.75
2022-11-07T14:50:03.863Z,0.70
2022-11-07T14:53:12.737Z,0.50
2022-11-07T14:56:21.782Z,0.40
2022-11-07T14:59:33.624Z,0.40
2022-11-07T15:02:38.685Z,0.82
2022-11-07T15:05:47.925Z,0.45
2022-11-07T15:09:01.066Z,0.50
2022-11-07T15:12:17.361Z,0.57
2022-11-07T15:15:24.150Z,0.82
2022-11-07T15:18:29.997Z,0.77
2022-11-07T15:21:38.317Z,0.60
2022-11-07T15:24:45.293Z,0.98
2022-11-07T15:27:50.476Z,0.90
2022-11-07T15:30:57.421Z,1.05
2022-11-07T15:34:06.742Z,1.90
2022-11-07T15:37:14.369Z,1.70
2022-11-07T15:40:21.895Z,0.85
2022-11-07T15:43:27.581Z,0.90
2022-11-07T15:46:37.043Z,1.27
2022-11-07T15:49:41.775Z,1.30
2022-11-07T15:52:49.221Z,1.33
2022-11-07T15:55:54.581Z,1.00
2022-11-07T15:59:00.278Z,0.95
2022-11-07T16:02:05.589Z,1.30
2022-11-07T16:05:10.670Z,1.08
2022-11-07T16:08:20.283Z,0.90
2022-11-07T16:11:25.434Z,0.63
2022-11-07T16:14:43.367Z,0.98
2022-11-07T16:17:49.465Z,0.93
2022-11-07T16:20:55.505Z,1.15
2022-11-07T16:24:02.906Z,0.80
2022-11-07T16:27:07.916Z,0.73
2022-11-07T16:30:17.383Z,0.52
2022-11-07T16:33:22.551Z,0.50
2022-11-07T16:36:31.003Z,0.50
2022-11-07T16:39:37.256Z,0.80
2022-11-07T16:42:42.213Z,0.60
2022-11-07T16:45:48.925Z,0.50
2022-11-07T16:48:56.011Z,0.50
2022-11-07T16:52:01.090Z,0.90
2022-11-07T16:55:08.381Z,0.65
2022-11-07T16:58:25.613Z,0.90
2022-11-07T17:01:31.689Z,0.70
2022-11-07T17:04:36.516Z,1.23
2022-11-07T17:07:41.246Z,0.95
2022-11-07T17:10:47.517Z,1.50
2022-11-07T17:13:52.610Z,1.60
2022-11-07T17:17:00.661Z,1.25
2022-11-07T17:20:05.646Z,0.80
2022-11-07T17:23:10.367Z,1.10
2022-11-07T17:26:20.138Z,1.05
2022-11-07T17:29:24.989Z,0.90
2022-11-07T17:32:29.746Z,1.00
2022-11-07T17:35:35.094Z,1.17
2022-11-07T17:38:40.031Z,1.00
2022-11-07T17:41:47.341Z,1.52
2022-11-07T17:44:51.965Z,1.73
2022-11-07T17:47:57.643Z,1.33
2022-11-07T17:51:02.179Z,1.50
2022-11-07T17:54:08.124Z,1.27
2022-11-07T17:57:16.013Z,1.10
2022-11-07T18:00:24.212Z,1.10
2022-11-07T18:03:29.403Z,1.10
2022-11-07T18:06:36.735Z,1.17
2022-11-07T18:09:42.671Z,1.10
2022-11-07T18:12:50.083Z,1.90
2022-11-07T18:15:55.002Z,2.03
2022-11-07T18:19:01.654Z,1.63
2022-11-07T18:22:06.953Z,1.95
2022-11-07T18:25:11.953Z,1.77
2022-11-07T18:28:18.437Z,1.42
2022-11-07T18:31:24.950Z,1.90
2022-11-07T18:34:30.351Z,1.67
2022-11-07T18:37:35.197Z,2.15
2022-11-07T18:40:40.248Z,1.77
2022-11-07T18:43:46.580Z,2.72
2022-11-07T18:46:51.429Z,2.10
2022-11-07T18:49:57.605Z,1.52
2022-11-07T18:53:02.422Z,1.80
2022-11-07T18:56:09.482Z,1.30
2022-11-07T18:59:15.882Z,1.35
2022-11-07T19:02:20.644Z,1.20
2022-11-07T19:05:25.805Z,1.77
2022-11-07T19:08:31.709Z,1.40
2022-11-07T19:11:36.685Z,1.30
2022-11-07T19:14:43.559Z,1.43
2022-11-07T19:17:48.665Z,1.43
2022-11-07T19:20:55.908Z,1.50
2022-11-07T19:24:02.561Z,1.30
2022-11-07T19:27:07.305Z,2.00
2022-11-07T19:30:15.147Z,1.53
2022-11-07T19:33:20.696Z,1.60
2022-11-07T19:36:25.329Z,2.20
2022-11-07T19:39:31.016Z,2.23
2022-11-07T19:42:36.020Z,1.67
2022-11-07T19:45:43.960Z,2.15
2022-11-07T19:48:49.307Z,1.80
2022-11-07T19:51:54.714Z,1.80
2022-11-07T19:54:59.567Z,1.93
2022-11-07T19:58:04.325Z,2.53
2022-11-07T20:01:15.369Z,2.13
2022-11-07T20:04:21.421Z,1.67
2022-11-07T20:07:26.284Z,1.90
2022-11-07T20:10:31.628Z,2.00
2022-11-07T20:13:36.469Z,3.67
2022-11-07T20:16:42.977Z,2.60
2022-11-07T20:19:47.980Z,2.47
2022-11-07T20:22:52.826Z,2.00
2022-11-07T20:25:57.782Z,2.37
2022-11-07T20:29:03.912Z,2.27
2022-11-07T20:32:11.586Z,1.93
2022-11-07T20:35:16.010Z,2.53
2022-11-07T20:38:20.720Z,2.73
2022-11-07T20:41:27.564Z,2.70
2022-11-07T20:44:32.204Z,2.87
2022-11-07T20:47:39.569Z,2.40
2022-11-07T20:50:44.951Z,2.80
2022-11-07T20:53:50.786Z,1.80
2022-11-07T20:56:56.603Z,2.37
2022-11-07T21:00:01.773Z,1.50
2022-11-07T21:03:13.469Z,1.50
2022-11-07T21:06:18.714Z,1.37
2022-11-07T21:09:24.194Z,1.43
2022-11-07T21:12:29.836Z,1.70
2022-11-07T21:15:34.848Z,1.50
2022-11-07T21:18:43.553Z,1.53
2022-11-07T21:21:49.733Z,1.70
2022-11-07T21:24:54.611Z,1.70
2022-11-07T21:27:59.943Z,1.60
2022-11-07T21:31:07.268Z,1.40
2022-11-07T21:34:13.427Z,1.63
2022-11-07T21:37:18.547Z,2.07
2022-11-07T21:40:23.362Z,1.53
2022-11-07T21:43:29.516Z,1.70
2022-11-07T21:46:35.071Z,2.03
2022-11-07T21:49:41.837Z,2.33
2022-11-07T21:52:49.364Z,1.93
2022-11-07T21:55:54.239Z,2.10
2022-11-07T21:59:01.219Z,1.90
2022-11-07T22:02:05.999Z,1.67
2022-11-07T22:05:15.500Z,1.80
2022-11-07T22:08:24.038Z,1.60
2022-11-07T22:11:29.086Z,1.90
2022-11-07T22:14:33.798Z,2.80
2022-11-07T22:17:38.749Z,3.07
2022-11-07T22:20:45.318Z,2.97
2022-11-07T22:23:51.277Z,2.43
2022-11-07T22:26:57.643Z,2.37
2022-11-07T22:30:03.865Z,2.97
2022-11-07T22:33:08.970Z,1.73
2022-11-07T22:36:15.773Z,2.20
2022-11-07T22:39:20.533Z,2.77
2022-11-07T22:42:25.455Z,2.00
2022-11-07T22:45:30.303Z,2.37
2022-11-07T22:48:35.500Z,3.20
2022-11-07T22:51:42.478Z,2.90
2022-11-07T22:54:47.281Z,3.30
2022-11-07T22:57:53.941Z,2.33
2022-11-07T23:00:59.045Z,2.23
2022-11-07T23:04:04.340Z,1.73
2022-11-07T23:07:10.918Z,2.67
2022-11-07T23:10:16.413Z,1.80
2022-11-07T23:13:21.298Z,2.00
2022-11-07T23:16:32.350Z,1.40
2022-11-07T23:19:37.572Z,1.93
2022-11-07T23:22:43.579Z,2.50
2022-11-07T23:25:48.042Z,2.13
2022-11-07T23:28:53.770Z,1.90
2022-11-07T23:31:59.267Z,2.10
2022-11-07T23:35:04.536Z,1.17
2022-11-07T23:38:10.704Z,1.37
2022-11-07T23:41:16.772Z,1.23
2022-11-07T23:44:21.522Z,1.73
2022-11-07T23:47:46.244Z,1.80
2022-11-07T23:51:05.171Z,1.80
2022-11-07T23:54:28.069Z,1.63
2022-11-07T23:57:55.805Z,1.60
